Time;durP1;ratioP1;P1;durP2;ratioP2;P2;SDS_P1;SDS_P2;PMS_P1;PMS_P2;Temp;Humidity;BMP_temperature;BMP_pressure;BME280_temperature;BME280_humidity;BME280_pressure;Samples;Min_cycle;Max_cycle;Signal;HPM_P1;HPM_P2
2022/11/02 00:00:44;;;;;;;6.57;1.52;;;12.90;99.90;;;;;;4998114;28;20041;-81
2022/11/02 00:03:10;;;;;;;7.47;1.98;;;12.90;99.90;;;;;;5002294;28;20041;-81
2022/11/02 00:05:36;;;;;;;8.85;1.88;;;12.90;99.90;;;;;;4999127;28;20516;-81
2022/11/02 00:08:02;;;;;;;7.03;1.75;;;12.90;99.90;;;;;;4998462;28;20468;-80
2022/11/02 00:10:28;;;;;;;10.05;2.30;;;12.90;99.90;;;;;;5014418;28;20126;-78
2022/11/02 00:12:55;;;;;;;8.80;2.17;;;13.00;99.90;;;;;;5019440;28;20045;-81
2022/11/02 00:15:23;;;;;;;9.48;1.75;;;13.00;99.90;;;;;;4994826;28;20053;-80
2022/11/02 00:17:53;;;;;;;8.70;1.70;;;12.90;99.90;;;;;;4996560;28;20076;-80
2022/11/02 00:20:19;;;;;;;7.72;1.67;;;12.90;99.90;;;;;;5018492;28;20053;-80
2022/11/02 00:22:47;;;;;;;9.82;2.00;;;12.90;99.90;;;;;;5017748;28;20045;-81
2022/11/02 00:25:16;;;;;;;9.00;2.35;;;12.90;99.90;;;;;;4984262;28;20037;-80
2022/11/02 00:27:42;;;;;;;7.85;2.40;;;12.80;99.90;;;;;;5017297;28;20041;-82
2022/11/02 00:30:09;;;;;;;6.85;2.08;;;12.80;99.90;;;;;;4998112;28;20444;-81
2022/11/02 00:32:35;;;;;;;7.75;1.85;;;12.70;99.90;;;;;;5012434;28;20102;-81
2022/11/02 00:35:00;;;;;;;8.00;2.17;;;12.70;99.90;;;;;;5015668;28;20488;-82
2022/11/02 00:37:26;;;;;;;9.35;1.52;;;12.60;99.90;;;;;;5034250;28;20080;-81
2022/11/02 00:39:52;;;;;;;8.93;1.77;;;12.60;99.90;;;;;;4993584;28;20038;-79
2022/11/02 00:42:17;;;;;;;8.60;1.77;;;12.50;99.90;;;;;;5014838;28;20093;-81
2022/11/02 00:44:43;;;;;;;8.75;1.63;;;12.50;99.90;;;;;;4995197;28;20042;-81
2022/11/02 00:47:10;;;;;;;6.28;1.77;;;12.50;99.90;;;;;;4997787;28;20409;-80
2022/11/02 00:49:36;;;;;;;5.60;1.63;;;12.40;99.90;;;;;;5021523;28;20041;-80
2022/11/02 00:52:02;;;;;;;7.82;1.63;;;12.50;99.90;;;;;;4981339;28;20041;-80
2022/11/02 00:54:27;;;;;;;5.28;1.75;;;12.40;99.90;;;;;;5000318;28;20052;-80
2022/11/02 00:56:53;;;;;;;8.32;1.90;;;12.30;99.90;;;;;;4998866;28;20046;-81
2022/11/02 00:59:19;;;;;;;10.90;2.35;;;12.30;99.90;;;;;;5010312;28;20049;-80
2022/11/02 01:01:46;;;;;;;4.75;1.30;;;12.30;99.90;;;;;;5001645;28;20041;-79
2022/11/02 01:04:16;;;;;;;5.97;1.80;;;12.30;99.90;;;;;;5008156;28;20060;-80
2022/11/02 01:06:42;;;;;;;6.43;1.70;;;12.30;99.90;;;;;;4995500;28;20498;-79
2022/11/02 01:09:09;;;;;;;6.93;1.52;;;12.20;99.90;;;;;;5018702;28;20087;-81
2022/11/02 01:11:35;;;;;;;8.10;1.25;;;12.20;99.90;;;;;;4998250;28;20041;-80
2022/11/02 01:14:00;;;;;;;4.13;1.13;;;12.10;99.90;;;;;;5020810;28;20063;-80
2022/11/02 01:16:26;;;;;;;9.55;1.58;;;12.20;99.90;;;;;;5020056;28;20076;-81
2022/11/02 01:18:54;;;;;;;5.75;1.23;;;12.10;99.90;;;;;;4999548;28;20394;-80
2022/11/02 01:21:20;;;;;;;7.07;1.58;;;12.10;99.90;;;;;;4998408;28;20128;-81
2022/11/02 01:23:46;;;;;;;7.05;1.30;;;12.10;99.90;;;;;;4998536;28;20048;-80
2022/11/02 01:26:11;;;;;;;6.32;1.85;;;12.30;99.90;;;;;;5003584;28;20046;-81
2022/11/02 01:28:38;;;;;;;5.47;1.42;;;12.20;99.90;;;;;;5019062;28;20068;-79
2022/11/02 01:31:05;;;;;;;5.38;1.58;;;12.10;99.90;;;;;;4995367;28;20092;-81
2022/11/02 01:33:31;;;;;;;4.50;1.55;;;12.20;99.90;;;;;;5005619;28;20044;-81
2022/11/02 01:35:57;;;;;;;6.15;1.10;;;12.20;99.90;;;;;;4998484;28;20048;-81
2022/11/02 01:38:23;;;;;;;4.95;1.10;;;12.20;99.90;;;;;;5034316;28;20116;-80
2022/11/02 01:40:49;;;;;;;7.53;1.73;;;12.20;99.90;;;;;;5002233;28;20787;-81
2022/11/02 01:43:26;;;;;;;8.95;1.50;;;12.70;99.90;;;;;;5003047;28;20060;-81
2022/11/02 01:46:12;;;;;;;4.15;1.05;;;12.20;99.90;;;;;;4999326;28;20045;-79
2022/11/02 01:48:46;;;;;;;7.18;1.20;;;12.20;99.90;;;;;;4998438;28;20077;-80
2022/11/02 01:51:20;;;;;;;8.48;1.58;;;12.10;99.90;;;;;;5002905;28;20073;-80
2022/11/02 01:53:49;;;;;;;6.80;1.30;;;12.10;99.90;;;;;;4998035;28;20064;-80
2022/11/02 01:56:19;;;;;;;7.25;1.40;;;12.00;99.90;;;;;;5018871;28;20045;-81
2022/11/02 01:58:50;;;;;;;6.43;1.33;;;12.10;99.90;;;;;;5023500;28;20048;-79
2022/11/02 02:01:16;;;;;;;6.45;1.20;;;11.90;99.90;;;;;;4995267;28;20052;-80
2022/11/02 02:03:42;;;;;;;8.27;1.63;;;11.80;99.90;;;;;;5017702;28;20128;-81
2022/11/02 02:06:12;;;;;;;4.70;1.10;;;11.80;99.90;;;;;;5024005;28;20115;-81
2022/11/02 02:08:42;;;;;;;6.80;1.20;;;11.70;99.90;;;;;;5007364;28;20071;-79
2022/11/02 02:11:43;;;;;;;6.93;0.88;;;11.70;99.90;;;;;;5008788;28;20045;-80
2022/11/02 02:14:17;;;;;;;3.33;0.98;;;11.70;99.90;;;;;;4963706;28;20061;-80
2022/11/02 02:17:13;;;;;;;2.67;0.73;;;11.60;99.90;;;;;;5000986;28;20057;-80
2022/11/02 02:19:38;;;;;;;5.03;1.13;;;11.60;99.90;;;;;;5021162;28;20102;-80
2022/11/02 02:22:22;;;;;;;4.45;0.75;;;11.60;99.90;;;;;;5015320;28;20061;-80
2022/11/02 02:24:54;;;;;;;;;;;11.60;99.90;;;;;;5027383;28;20091;-80
2022/11/02 02:27:28;;;;;;;5.40;1.20;;;11.60;99.90;;;;;;5019762;28;19987;-80
2022/11/02 02:30:04;;;;;;;3.10;0.85;;;11.50;99.90;;;;;;5011235;28;20044;-81
2022/11/02 02:32:52;;;;;;;3.80;0.90;;;11.50;99.90;;;;;;5006263;28;20037;-81
2022/11/02 02:35:33;;;;;;;3.85;1.25;;;11.50;99.90;;;;;;5017854;28;20052;-80
2022/11/02 02:38:07;;;;;;;4.18;1.30;;;11.50;99.90;;;;;;5013999;28;20117;-81
2022/11/02 02:40:41;;;;;;;4.85;1.35;;;12.10;99.90;;;;;;4999458;28;20430;-79
2022/11/02 02:43:19;;;;;;;6.10;1.73;;;11.50;99.90;;;;;;5018584;28;20038;-81
2022/11/02 02:45:59;;;;;;;4.47;1.48;;;11.40;99.90;;;;;;5013646;28;20516;-81
2022/11/02 02:48:26;;;;;;;3.40;1.38;;;11.40;99.90;;;;;;5015550;28;20470;-81
2022/11/02 02:51:09;;;;;;;5.90;1.20;;;11.40;99.90;;;;;;5013820;28;20037;-79
2022/11/02 02:53:43;;;;;;;4.18;1.25;;;11.50;99.90;;;;;;5019320;28;20039;-81
2022/11/02 02:56:11;;;;;;;4.53;0.95;;;11.40;99.90;;;;;;5021690;28;20038;-81
2022/11/02 02:58:48;;;;;;;5.95;1.10;;;11.40;99.90;;;;;;5021839;28;20072;-79
2022/11/02 03:01:15;;;;;;;5.18;1.20;;;11.50;99.90;;;;;;5016661;28;20034;-81
2022/11/02 03:03:42;;;;;;;4.53;0.80;;;11.50;99.90;;;;;;4984281;28;20090;-81
2022/11/02 03:06:08;;;;;;;6.63;1.10;;;11.50;99.90;;;;;;5007519;28;20099;-81
2022/11/02 03:08:37;;;;;;;4.45;0.70;;;11.50;99.90;;;;;;5002401;28;20267;-80
2022/11/02 03:11:13;;;;;;;5.82;1.25;;;11.50;99.90;;;;;;5013067;28;20033;-80
2022/11/02 03:13:54;;;;;;;6.20;0.70;;;11.50;99.90;;;;;;4991963;28;20513;-80
2022/11/02 03:16:41;;;;;;;3.60;1.38;;;11.50;99.90;;;;;;5014153;28;20037;-78
2022/11/02 03:19:15;;;;;;;12.48;1.23;;;11.50;99.90;;;;;;5003270;28;20088;-81
2022/11/02 03:21:43;;;;;;;6.90;1.52;;;11.40;99.90;;;;;;5003158;28;20033;-81
2022/11/02 03:24:41;;;;;;;5.57;0.95;;;11.40;99.90;;;;;;5006587;28;20121;-81
2022/11/02 03:27:34;;;;;;;5.63;0.98;;;11.40;99.90;;;;;;4983751;28;20063;-79
2022/11/02 03:30:14;;;;;;;5.65;1.15;;;11.40;99.90;;;;;;5015956;28;20048;-81
2022/11/02 03:32:59;;;;;;;4.95;1.70;;;11.50;99.90;;;;;;5015685;28;20037;-80
2022/11/02 03:35:34;;;;;;;4.95;1.88;;;11.40;99.90;;;;;;5027065;28;20120;-80
2022/11/02 03:38:18;;;;;;;5.78;0.80;;;11.30;99.90;;;;;;5002554;28;20124;-80
2022/11/02 03:40:47;;;;;;;5.82;1.00;;;11.30;99.90;;;;;;5020418;28;20044;-81
2022/11/02 03:43:14;;;;;;;5.00;1.00;;;11.30;99.90;;;;;;4991350;28;20042;-79
2022/11/02 03:45:48;;;;;;;7.13;1.20;;;11.30;99.90;;;;;;5005745;28;20498;-80
2022/11/02 03:48:15;;;;;;;;;;;11.30;99.90;;;;;;5005357;28;20119;-80
2022/11/02 03:50:47;;;;;;;8.75;1.70;;;11.30;99.90;;;;;;5017371;28;19933;-80
2022/11/02 03:53:19;;;;;;;8.18;1.27;;;11.20;99.90;;;;;;5019378;28;20037;-80
2022/11/02 03:55:56;;;;;;;9.02;1.45;;;11.20;99.90;;;;;;5017967;28;20417;-80
2022/11/02 03:58:23;;;;;;;8.82;1.80;;;11.20;99.90;;;;;;5014675;28;20042;-81
2022/11/02 04:00:56;;;;;;;9.40;2.33;;;11.20;99.90;;;;;;5001939;28;20494;-80
2022/11/02 04:03:23;;;;;;;11.57;1.50;;;11.20;99.90;;;;;;4999974;28;20037;-80
2022/11/02 04:05:49;;;;;;;14.82;2.97;;;11.30;99.90;;;;;;4986799;28;20517;-80
2022/11/02 04:08:21;;;;;;;12.75;1.88;;;12.20;99.90;;;;;;4998549;28;20044;-80
2022/11/02 04:16:17;;;;;;;9.98;1.88;;;11.50;99.90;;;;;;5017653;28;20553;-81
2022/11/02 04:21:28;;;;;;;6.43;1.50;;;11.60;99.90;;;;;;4991753;28;20042;-81
2022/11/02 04:26:38;;;;;;;8.85;1.80;;;11.50;99.90;;;;;;5010940;28;20397;-81
2022/11/02 04:29:04;;;;;;;11.30;2.03;;;11.50;99.90;;;;;;5014959;28;20046;-79
2022/11/02 04:31:30;;;;;;;9.40;2.15;;;11.50;99.90;;;;;;5000006;28;20049;-81
2022/11/02 04:33:58;;;;;;;9.90;1.65;;;11.50;99.90;;;;;;5032447;28;20525;-81
2022/11/02 04:36:24;;;;;;;12.80;2.33;;;11.50;99.90;;;;;;4996202;28;20065;-81
2022/11/02 04:38:50;;;;;;;11.85;2.20;;;11.50;99.90;;;;;;5029465;28;20104;-81
2022/11/02 04:44:04;;;;;;;9.48;1.75;;;11.40;99.90;;;;;;5008422;28;20049;-81
2022/11/02 04:46:32;;;;;;;8.23;1.90;;;11.50;99.90;;;;;;5029058;28;20073;-79
2022/11/02 04:48:57;;;;;;;9.50;1.77;;;11.40;99.90;;;;;;4997170;28;20061;-81
2022/11/02 04:51:24;;;;;;;8.15;1.30;;;11.40;99.90;;;;;;5019708;28;20068;-81
2022/11/02 04:53:52;;;;;;;11.70;2.08;;;11.40;99.90;;;;;;5016827;28;20506;-79
2022/11/02 04:56:18;;;;;;;9.18;2.22;;;11.40;99.90;;;;;;5016621;28;20044;-80
2022/11/02 04:58:50;;;;;;;6.85;1.55;;;11.40;99.90;;;;;;5001415;28;20042;-81
2022/11/02 05:01:17;;;;;;;7.93;1.95;;;11.40;99.90;;;;;;4999079;28;20510;-80
2022/11/02 05:03:46;;;;;;;9.45;1.60;;;11.60;99.90;;;;;;5015523;28;20046;-80
2022/11/02 05:06:11;;;;;;;9.60;1.63;;;11.40;99.90;;;;;;4992421;28;20088;-81
2022/11/02 05:08:37;;;;;;;8.68;1.70;;;11.40;99.90;;;;;;5016402;28;20049;-80
2022/11/02 05:11:03;;;;;;;8.20;1.65;;;11.40;99.90;;;;;;4983153;28;20041;-81
2022/11/02 05:13:29;;;;;;;10.27;1.92;;;11.30;99.90;;;;;;5017017;28;20037;-81
2022/11/02 05:15:56;;;;;;;8.57;2.00;;;11.30;99.90;;;;;;5013534;28;20164;-81
2022/11/02 05:18:22;;;;;;;7.18;1.75;;;11.50;99.90;;;;;;5010452;28;20042;-81
2022/11/02 05:23:16;;;;;;;6.45;1.50;;;11.30;99.90;;;;;;5031999;28;20061;-80
2022/11/02 05:25:42;;;;;;;9.20;1.83;;;11.30;99.90;;;;;;4986334;28;20406;-81
2022/11/02 05:28:07;;;;;;;10.13;1.90;;;11.30;99.90;;;;;;4970111;28;20612;-81
2022/11/02 05:30:33;;;;;;;9.73;1.70;;;11.30;99.90;;;;;;4994581;28;20417;-81
2022/11/02 05:33:01;;;;;;;11.80;1.90;;;11.30;99.90;;;;;;5006983;28;20410;-80
2022/11/02 05:35:27;;;;;;;12.13;1.88;;;11.40;99.90;;;;;;5027191;28;20037;-81
2022/11/02 05:37:54;;;;;;;10.10;1.85;;;11.40;99.90;;;;;;5022455;28;20036;-79
2022/11/02 05:40:20;;;;;;;8.30;1.67;;;11.40;99.90;;;;;;5057032;28;20037;-81
2022/11/02 05:42:45;;;;;;;10.70;2.05;;;11.40;99.90;;;;;;5025730;28;20051;-80
2022/11/02 05:45:11;;;;;;;11.70;2.15;;;11.40;99.90;;;;;;5023715;28;20048;-80
2022/11/02 05:47:37;;;;;;;10.55;2.97;;;12.10;99.90;;;;;;5042801;28;20045;-81
2022/11/02 05:50:03;;;;;;;9.00;1.83;;;11.50;99.90;;;;;;5027154;28;20076;-80
2022/11/02 05:52:28;;;;;;;10.40;2.33;;;11.50;99.90;;;;;;5026524;28;20029;-81
2022/11/02 05:54:54;;;;;;;10.68;2.00;;;11.50;99.90;;;;;;5041922;28;20078;-81
2022/11/02 05:57:20;;;;;;;10.25;1.75;;;11.50;99.90;;;;;;5026782;28;20033;-80
2022/11/02 05:59:45;;;;;;;18.45;4.03;;;11.60;99.90;;;;;;5023375;28;20076;-81
2022/11/02 06:02:11;;;;;;;14.27;3.17;;;11.50;99.90;;;;;;5008747;28;20045;-81
2022/11/02 06:04:37;;;;;;;12.73;2.08;;;11.50;99.90;;;;;;5019497;28;20230;-81
2022/11/02 06:07:03;;;;;;;12.73;2.28;;;11.50;99.90;;;;;;5016631;28;20033;-82
2022/11/02 06:09:28;;;;;;;17.17;2.10;;;11.40;99.90;;;;;;5040525;28;20126;-81
2022/11/02 06:11:55;;;;;;;9.07;2.33;;;11.50;99.90;;;;;;5022747;28;20493;-80
2022/11/02 06:14:20;;;;;;;11.68;2.55;;;11.50;99.90;;;;;;5024652;28;20037;-81
2022/11/02 06:16:46;;;;;;;12.02;2.00;;;11.60;99.90;;;;;;5041939;28;20098;-82
2022/11/02 06:19:12;;;;;;;13.57;2.83;;;11.50;99.90;;;;;;5009775;28;20632;-80
2022/11/02 06:21:37;;;;;;;12.27;2.17;;;11.50;99.90;;;;;;5012288;28;20039;-79
2022/11/02 06:24:03;;;;;;;12.13;2.45;;;11.50;99.90;;;;;;5025310;28;20471;-81
2022/11/02 06:26:29;;;;;;;12.65;2.75;;;11.50;99.90;;;;;;5027442;28;20048;-81
2022/11/02 06:28:55;;;;;;;16.55;2.75;;;11.50;99.90;;;;;;5024458;28;20112;-79
2022/11/02 06:31:20;;;;;;;9.82;1.75;;;11.50;99.90;;;;;;5026670;28;20433;-81
2022/11/02 06:33:46;;;;;;;13.10;2.13;;;11.40;99.90;;;;;;5028767;28;20091;-82
2022/11/02 06:36:12;;;;;;;9.65;1.88;;;11.40;99.90;;;;;;4992321;28;20033;-81
2022/11/02 06:38:37;;;;;;;9.00;1.92;;;11.30;99.90;;;;;;5009640;28;20037;-80
2022/11/02 06:41:05;;;;;;;12.15;2.28;;;11.80;99.90;;;;;;5011655;28;20166;-81
2022/11/02 06:43:32;;;;;;;12.65;2.50;;;11.30;99.90;;;;;;5038710;28;20037;-81
2022/11/02 06:45:58;;;;;;;11.10;2.25;;;11.40;99.90;;;;;;5026260;28;20067;-81
2022/11/02 06:48:25;;;;;;;13.32;2.58;;;11.40;99.90;;;;;;5047678;28;20104;-81
2022/11/02 06:50:51;;;;;;;13.40;2.25;;;11.40;99.90;;;;;;5048418;28;20044;-80
2022/11/02 06:53:17;;;;;;;13.00;2.15;;;11.40;99.90;;;;;;5048379;28;20065;-81
2022/11/02 06:55:43;;;;;;;8.52;1.75;;;11.30;99.90;;;;;;5021794;28;20040;-81
2022/11/02 06:58:09;;;;;;;6.70;1.70;;;11.30;99.90;;;;;;5022440;28;20504;-80
2022/11/02 07:00:35;;;;;;;8.75;1.63;;;11.30;99.90;;;;;;5023492;28;20048;-81
2022/11/02 07:03:06;;;;;;;6.70;1.80;;;11.30;99.90;;;;;;5019231;28;20505;-81
2022/11/02 07:05:32;;;;;;;7.32;1.58;;;11.30;99.90;;;;;;5051731;28;20531;-81
2022/11/02 07:07:58;;;;;;;8.80;1.63;;;11.30;99.90;;;;;;5006562;28;20036;-82
2022/11/02 07:10:25;;;;;;;8.23;1.65;;;11.20;99.90;;;;;;5037155;28;20033;-81
2022/11/02 07:12:53;;;;;;;4.93;1.20;;;11.20;99.90;;;;;;5021126;28;20480;-78
2022/11/02 07:15:23;;;;;;;6.47;1.10;;;11.20;99.90;;;;;;5015963;28;20041;-80
2022/11/02 07:17:49;;;;;;;7.72;1.58;;;11.20;99.90;;;;;;5040820;28;20055;-82
2022/11/02 07:20:15;;;;;;;8.68;1.80;;;11.20;99.90;;;;;;5022722;28;20043;-81
2022/11/02 07:22:41;;;;;;;9.73;1.38;;;11.20;99.90;;;;;;5004996;28;20524;-81
2022/11/02 07:25:07;;;;;;;10.65;2.13;;;11.20;99.90;;;;;;5018898;28;20037;-81
2022/11/02 07:27:39;;;;;;;12.57;1.98;;;11.20;99.90;;;;;;5030751;28;20044;-81
2022/11/02 07:30:06;;;;;;;7.00;0.80;;;11.20;99.90;;;;;;5004813;28;20037;-81
2022/11/02 07:32:39;;;;;;;10.98;1.80;;;11.20;99.90;;;;;;5038150;28;20048;-82
2022/11/02 07:35:05;;;;;;;8.30;1.50;;;11.20;99.90;;;;;;5017381;28;20067;-80
2022/11/02 07:37:31;;;;;;;5.68;1.23;;;11.20;99.90;;;;;;5001013;28;20047;-81
2022/11/02 07:39:57;;;;;;;7.30;1.48;;;11.20;99.90;;;;;;5019778;28;20041;-81
2022/11/02 07:42:22;;;;;;;6.50;1.45;;;11.40;99.90;;;;;;4988953;28;20028;-79
2022/11/02 07:44:48;;;;;;;9.50;1.50;;;11.40;99.90;;;;;;5005975;28;20041;-83
2022/11/02 07:47:14;;;;;;;8.10;1.55;;;11.40;99.90;;;;;;5035687;28;20041;-81
2022/11/02 07:49:40;;;;;;;9.25;1.23;;;11.40;99.90;;;;;;5018867;28;20041;-81
2022/11/02 07:52:05;;;;;;;4.80;1.50;;;11.40;99.90;;;;;;4987277;28;20032;-81
2022/11/02 07:54:31;;;;;;;9.80;1.67;;;11.40;99.90;;;;;;5019334;28;20041;-80
2022/11/02 07:56:57;;;;;;;9.98;2.22;;;11.50;99.90;;;;;;5020504;28;20924;-79
2022/11/02 07:59:22;;;;;;;10.88;1.90;;;11.50;99.90;;;;;;5032958;28;20033;-78
2022/11/02 08:01:48;;;;;;;6.93;1.60;;;11.60;99.90;;;;;;4990709;28;20064;-79
2022/11/02 08:04:13;;;;;;;11.13;2.05;;;11.60;99.90;;;;;;5003388;28;20032;-81
2022/11/02 08:06:39;;;;;;;8.50;1.73;;;11.70;99.90;;;;;;5034816;28;20048;-81
2022/11/02 08:09:05;;;;;;;9.70;1.60;;;11.70;99.90;;;;;;5013660;28;20040;-80
2022/11/02 08:11:30;;;;;;;9.88;1.67;;;11.70;99.90;;;;;;5006317;28;20051;-80
2022/11/02 08:13:56;;;;;;;9.07;2.13;;;11.70;99.90;;;;;;5046940;28;20048;-81
2022/11/02 08:16:22;;;;;;;9.02;1.38;;;11.70;99.90;;;;;;5020211;28;20037;-79
2022/11/02 08:18:48;;;;;;;9.30;1.70;;;11.80;99.90;;;;;;5005701;28;20021;-79
2022/11/02 08:21:13;;;;;;;11.27;2.28;;;11.80;99.90;;;;;;5005373;28;20061;-80
2022/11/02 08:23:39;;;;;;;10.95;2.72;;;11.90;99.90;;;;;;5016227;28;20456;-81
2022/11/02 08:26:05;;;;;;;9.10;1.45;;;11.90;99.90;;;;;;5024508;28;20040;-78
2022/11/02 08:28:34;;;;;;;8.82;1.52;;;11.90;99.90;;;;;;5023732;28;20049;-81
2022/11/02 08:31:00;;;;;;;14.07;1.90;;;12.00;99.90;;;;;;5019724;28;20116;-81
2022/11/02 08:33:25;;;;;;;11.73;1.92;;;11.90;99.90;;;;;;5012277;28;20570;-80
2022/11/02 08:35:52;;;;;;;9.43;2.15;;;12.00;99.90;;;;;;5040215;28;20047;-78
2022/11/02 08:38:21;;;;;;;9.45;1.60;;;12.00;99.90;;;;;;5005628;28;20093;-80
2022/11/02 08:40:48;;;;;;;8.60;1.70;;;12.10;99.90;;;;;;5019475;28;20063;-78
2022/11/02 08:43:14;;;;;;;11.95;1.83;;;12.20;99.90;;;;;;5015537;28;20083;-79
2022/11/02 08:45:42;;;;;;;11.98;2.10;;;12.10;99.90;;;;;;5023294;28;20060;-80
2022/11/02 08:48:07;;;;;;;9.13;2.35;;;12.10;99.90;;;;;;5039488;28;20073;-80
2022/11/02 08:50:34;;;;;;;10.93;2.15;;;12.20;99.90;;;;;;5023193;28;20044;-79
2022/11/02 08:53:00;;;;;;;9.55;1.75;;;12.30;99.90;;;;;;5017612;28;20086;-80
2022/11/02 08:55:26;;;;;;;14.90;2.60;;;12.40;99.90;;;;;;5019831;28;20120;-80
2022/11/02 08:57:57;;;;;;;13.68;2.58;;;12.40;99.90;;;;;;5035356;28;20041;-79
2022/11/02 09:00:26;;;;;;;14.07;2.20;;;12.60;99.90;;;;;;5039514;28;20477;-79
2022/11/02 09:03:10;;;;;;;15.93;2.30;;;12.60;99.90;;;;;;5040993;28;20037;-79
2022/11/02 09:05:39;;;;;;;10.07;2.00;;;12.70;99.90;;;;;;5056358;28;20048;-80
2022/11/02 09:08:08;;;;;;;11.40;2.05;;;12.70;99.90;;;;;;5056806;28;20052;-79
2022/11/02 09:10:35;;;;;;;13.30;2.30;;;12.80;99.90;;;;;;5026692;28;20032;-80
2022/11/02 09:13:03;;;;;;;13.70;2.10;;;12.80;99.90;;;;;;5021437;28;20067;-79
2022/11/02 09:15:31;;;;;;;8.00;2.47;;;12.90;99.90;;;;;;5037649;28;20041;-78
2022/11/02 09:17:57;;;;;;;12.05;1.77;;;12.90;99.90;;;;;;5022722;28;20032;-79
2022/11/02 09:20:22;;;;;;;10.68;2.58;;;13.00;99.90;;;;;;5017724;28;20051;-81
2022/11/02 09:22:48;;;;;;;11.40;1.85;;;13.10;99.90;;;;;;5022260;28;20044;-78
2022/11/02 09:25:15;;;;;;;15.23;2.17;;;13.20;99.90;;;;;;5045326;28;20021;-78
2022/11/02 09:27:42;;;;;;;8.82;2.15;;;13.30;99.90;;;;;;5045787;28;20044;-80
2022/11/02 09:30:09;;;;;;;7.05;1.85;;;13.30;99.90;;;;;;5034870;28;20033;-78
2022/11/02 09:32:35;;;;;;;9.18;2.35;;;13.30;99.90;;;;;;5018183;28;20064;-78
2022/11/02 09:35:08;;;;;;;14.32;2.17;;;13.30;99.90;;;;;;5019573;28;20045;-80
2022/11/02 09:37:34;;;;;;;9.90;2.15;;;13.30;99.90;;;;;;5020047;28;20082;-76
2022/11/02 09:40:00;;;;;;;9.77;1.80;;;13.30;99.90;;;;;;5024999;28;20092;-79
2022/11/02 09:43:03;;;;;;;7.78;1.85;;;13.40;99.90;;;;;;5040975;28;20052;-81
2022/11/02 09:45:33;;;;;;;14.43;2.50;;;13.30;99.90;;;;;;5021519;28;20041;-78
2022/11/02 09:48:06;;;;;;;11.15;2.17;;;13.20;99.90;;;;;;5033045;28;20517;-79
2022/11/02 09:51:00;;;;;;;16.23;2.35;;;13.20;99.90;;;;;;5022406;28;20146;-79
2022/11/02 09:53:49;;;;;;;10.43;1.95;;;13.30;99.90;;;;;;5023042;28;20024;-78
2022/11/02 09:56:20;;;;;;;11.50;2.47;;;13.40;99.90;;;;;;5040020;28;20045;-81
2022/11/02 09:58:57;;;;;;;11.00;1.90;;;13.60;99.90;;;;;;5024481;28;20650;-81
2022/11/02 10:01:32;;;;;;;14.32;2.78;;;13.70;99.90;;;;;;5022288;28;20071;-83
2022/11/02 10:04:06;;;;;;;14.75;2.08;;;13.70;99.90;;;;;;5036268;28;20520;-79
2022/11/02 10:06:34;;;;;;;;;;;13.70;99.90;;;;;;5020962;28;20489;-81
2022/11/02 10:09:03;;;;;;;13.38;2.10;;;13.60;99.90;;;;;;5020284;28;19916;-81
2022/11/02 10:11:49;;;;;;;12.20;1.77;;;13.30;99.90;;;;;;5021344;28;20051;-79
2022/11/02 10:14:21;;;;;;;12.75;2.58;;;13.10;99.90;;;;;;5031654;28;20041;-78
2022/11/02 10:16:54;;;;;;;11.48;1.70;;;12.90;99.90;;;;;;5038374;28;20299;-79
2022/11/02 10:19:20;;;;;;;12.02;1.83;;;12.90;99.90;;;;;;5020811;28;20182;-80
2022/11/02 10:21:55;;;;;;;9.43;1.63;;;12.80;99.90;;;;;;5019291;28;20033;-79
2022/11/02 10:24:36;;;;;;;18.23;2.90;;;12.70;99.90;;;;;;5034115;28;20056;-77
2022/11/02 10:27:08;;;;;;;9.32;1.98;;;12.70;99.90;;;;;;5032679;28;20048;-79
2022/11/02 10:29:45;;;;;;;12.63;1.77;;;12.70;99.90;;;;;;5019903;28;20048;-78
2022/11/02 10:35:56;;;;;;;12.15;2.10;;;13.10;99.90;;;;;;5018467;28;20062;-80
2022/11/02 10:38:53;;;;;;;7.78;1.95;;;12.90;99.90;;;;;;5026435;28;20591;-79
2022/11/02 10:44:35;;;;;;;12.35;1.98;;;13.20;99.90;;;;;;5038322;28;20127;-81
2022/11/02 10:47:17;;;;;;;11.60;2.05;;;13.20;99.90;;;;;;5037690;28;20596;-79
2022/11/02 10:50:04;;;;;;;8.18;1.73;;;13.30;99.90;;;;;;5019018;28;20043;-80
2022/11/02 10:52:38;;;;;;;12.77;2.00;;;13.20;99.90;;;;;;5020832;28;20037;-79
2022/11/02 10:55:09;;;;;;;14.77;2.78;;;13.50;99.90;;;;;;5037324;28;20134;-79
2022/11/02 10:57:38;;;;;;;9.82;1.70;;;13.40;99.90;;;;;;5054310;28;20115;-79
2022/11/02 11:00:23;;;;;;;14.10;1.90;;;13.40;99.90;;;;;;5051890;28;20037;-80
2022/11/02 11:03:23;;;;;;;6.32;1.50;;;13.40;99.90;;;;;;5040488;28;20124;-78
2022/11/02 11:06:03;;;;;;;8.45;2.08;;;13.40;99.90;;;;;;4966966;28;20519;-80
2022/11/02 11:08:30;;;;;;;9.38;2.10;;;13.30;99.90;;;;;;5050573;28;20143;-78
2022/11/02 11:11:29;;;;;;;6.25;1.27;;;13.10;99.90;;;;;;5019126;28;20041;-79
2022/11/02 11:14:12;;;;;;;10.95;2.00;;;13.10;99.90;;;;;;5018613;28;20044;-80
2022/11/02 11:16:44;;;;;;;10.32;2.15;;;13.20;99.90;;;;;;5055258;28;20033;-80
2022/11/02 11:19:45;;;;;;;8.55;2.70;;;13.30;99.90;;;;;;5037207;28;20043;-79
2022/11/02 11:22:28;;;;;;;14.60;2.30;;;13.60;99.90;;;;;;5026586;28;20046;-77
2022/11/02 11:25:20;;;;;;;9.10;2.10;;;13.90;99.90;;;;;;5020615;28;20037;-80
2022/11/02 11:27:57;;;;;;;11.07;2.15;;;14.30;99.90;;;;;;5035949;28;20103;-80
2022/11/02 11:30:30;;;;;;;10.32;1.95;;;14.50;99.90;;;;;;5036461;28;20040;-80
2022/11/02 11:32:57;;;;;;;15.37;2.93;;;14.60;99.90;;;;;;5036028;28;20038;-79
2022/11/02 11:35:29;;;;;;;9.75;1.80;;;14.80;99.90;;;;;;5020325;28;20046;-81
2022/11/02 11:37:58;;;;;;;9.05;1.70;;;15.00;99.90;;;;;;5035991;28;20036;-82
2022/11/02 11:40:25;;;;;;;8.25;1.55;;;15.10;99.90;;;;;;5036582;28;20033;-78
2022/11/02 11:42:54;;;;;;;8.63;1.63;;;15.00;99.90;;;;;;5036527;28;20040;-78
2022/11/02 11:45:28;;;;;;;9.20;1.50;;;15.00;99.90;;;;;;5035416;28;20512;-78
2022/11/02 11:47:59;;;;;;;8.32;1.83;;;15.10;99.90;;;;;;5036023;28;20044;-80
2022/11/02 11:50:25;;;;;;;7.22;1.73;;;15.10;99.90;;;;;;5051001;28;20225;-80
2022/11/02 11:53:24;;;;;;;8.55;1.52;;;14.90;99.90;;;;;;5001882;28;20659;-80
2022/11/02 11:55:58;;;;;;;6.78;1.60;;;14.90;99.90;;;;;;5030967;28;20047;-80
2022/11/02 11:58:26;;;;;;;10.73;1.80;;;15.00;99.90;;;;;;5034830;28;20051;-78
2022/11/02 12:01:07;;;;;;;7.90;1.83;;;15.00;99.90;;;;;;5015761;28;20086;-79
2022/11/02 12:03:52;;;;;;;6.95;1.67;;;15.20;99.90;;;;;;5002300;28;20100;-80
2022/11/02 12:06:30;;;;;;;10.63;1.80;;;15.20;99.90;;;;;;5030520;28;20040;-80
2022/11/02 12:09:06;;;;;;;8.98;1.83;;;15.40;99.90;;;;;;5028721;28;20656;-81
2022/11/02 12:11:34;;;;;;;10.88;2.33;;;15.40;99.90;;;;;;5020102;28;20164;-80
2022/11/02 12:14:28;;;;;;;11.32;2.13;;;15.60;99.90;;;;;;5049992;28;20047;-81
2022/11/02 12:16:54;;;;;;;;;;;15.60;99.90;;;;;;5018881;28;20052;-79
2022/11/02 12:19:49;;;;;;;10.85;2.38;;;15.70;99.90;;;;;;5022676;28;19916;-80
2022/11/02 12:22:34;;;;;;;11.20;3.08;;;15.60;99.90;;;;;;5018948;28;20060;-81
2022/11/02 12:25:33;;;;;;;9.75;2.10;;;15.40;99.20;;;;;;5033774;28;20037;-81
2022/11/02 12:28:23;;;;;;;10.30;2.13;;;15.20;99.90;;;;;;5017804;28;20316;-80
2022/11/02 12:31:09;;;;;;;11.35;2.38;;;15.10;99.90;;;;;;5055624;28;20432;-80
2022/11/02 12:33:45;;;;;;;7.38;1.92;;;15.20;99.90;;;;;;5035190;28;20095;-81
2022/11/02 12:36:33;;;;;;;10.13;1.98;;;15.20;99.90;;;;;;5020711;28;20048;-82
2022/11/02 12:39:15;;;;;;;17.15;2.38;;;15.10;99.90;;;;;;5033412;28;20119;-81
2022/11/02 12:41:50;;;;;;;6.53;1.55;;;15.10;99.90;;;;;;5018614;28;20085;-80
2022/11/02 12:44:38;;;;;;;8.40;1.63;;;15.10;99.90;;;;;;5035978;28;20057;-81
2022/11/02 12:47:28;;;;;;;8.52;1.90;;;15.00;99.90;;;;;;5037996;28;20041;-80
2022/11/02 12:50:09;;;;;;;9.95;2.03;;;15.10;99.90;;;;;;5049602;28;20463;-81
2022/11/02 12:53:00;;;;;;;10.57;1.75;;;15.10;99.90;;;;;;5050306;28;20036;-82
2022/11/02 12:55:35;;;;;;;10.23;2.17;;;15.00;99.90;;;;;;5034295;28;20083;-81
2022/11/02 12:58:06;;;;;;;13.00;1.83;;;15.00;99.90;;;;;;5035870;28;20409;-79
2022/11/02 13:00:37;;;;;;;7.78;1.60;;;14.90;99.90;;;;;;5034044;28;20064;-79
2022/11/02 13:03:41;;;;;;;8.10;1.85;;;14.90;99.90;;;;;;5034390;28;20105;-80
2022/11/02 13:06:12;;;;;;;8.30;1.80;;;14.80;99.90;;;;;;5032917;28;20051;-80
2022/11/02 13:08:45;;;;;;;10.38;2.28;;;14.70;99.90;;;;;;5046729;28;20076;-81
2022/11/02 13:11:24;;;;;;;12.52;2.03;;;14.70;99.90;;;;;;5043453;28;20044;-81
2022/11/02 13:13:53;;;;;;;10.20;2.40;;;14.80;99.90;;;;;;5013983;28;20129;-81
2022/11/02 13:16:27;;;;;;;15.15;3.05;;;14.80;99.90;;;;;;5030023;28;20029;-81
2022/11/02 13:18:56;;;;;;;9.65;2.38;;;14.80;99.90;;;;;;5033137;28;20041;-80
2022/11/02 13:21:36;;;;;;;9.50;1.98;;;14.80;99.90;;;;;;5029205;28;20036;-79
2022/11/02 13:24:04;;;;;;;9.50;1.88;;;14.80;99.90;;;;;;5047249;28;20047;-80
2022/11/02 13:26:40;;;;;;;11.02;2.15;;;14.80;99.90;;;;;;4996270;28;20052;-81